Flight Track Log - Related Links

Times and Time Zones

All times are in EDT time to prevent confusion due to time zone crossing. See the UAL3740 flight status page for this flight to view local times or setup timezone preferences in your user account.

Time Position Orientation Groundspeed Altitude Reporting Facility
EDT Latitude Longitude Course Direction KTS MPH feet Rate Location/Type
Tue 08:45:00 AM 39.0833 -76.6300 90° East  Level FlightAware Approximate
Tue 08:46:00 AM 39.0962 -76.4895 78° East  Level FlightAware Approximate
Tue 08:47:00 AM 39.1206 -76.3509 72° East  Level FlightAware Approximate
Tue 08:47:33 AM 38.9742 -76.5342 45° Northeast 452 520 19,000  Level Washington Center
Tue 08:48:00 AM 39.1469 -76.2197 38° Northeast  Level FlightAware Approximate
Tue 08:48:33 AM 39.0003 -76.3794 78° East 436 502 20,000  Level Washington Center
Tue 08:49:00 AM 39.1624 -76.0803 83° East  Level FlightAware Approximate
Tue 08:49:34 AM 39.0556 -76.2358 64° Northeast 424 488 21,600  Level Washington Center
Tue 08:50:00 AM 39.1730 -75.9390 80° East  Level FlightAware Approximate
Tue 08:50:34 AM 39.1125 -76.0864 64° Northeast 439 505 22,900  Level Washington Center
Tue 08:51:00 AM 39.2195 -75.8160 47° Northeast  Level FlightAware Approximate
Tue 08:51:33 AM 39.1714 -75.9342 63° Northeast 458 527 23,000  Level Washington Center
Tue 08:52:00 AM 39.2956 -75.7128 45° Northeast  Level FlightAware Approximate
Tue 08:52:33 AM 39.2550 -75.8033 50° Northeast 464 534 24,200  Level Washington Center
Tue 08:53:33 AM 39.3489 -75.6828 45° Northeast 464 534 26,100 1,750 Climbing Washington Center
Tue 08:54:33 AM 39.4364 -75.5672 46° Northeast 457 526 27,700 1,698 Climbing Washington Center
Tue 08:56:12 AM 39.5794 -75.3822 45° Northeast 453 521 30,600 1,660 Climbing New York Center
Tue 08:57:12 AM 39.6672 -75.2667 45° Northeast 453 521 32,100 1,190 Climbing New York Center
Tue 08:58:13 AM 39.7489 -75.1422 49° Northeast 447 514 33,000 454 Climbing New York Center
Tue 08:59:11 AM 39.8369 -75.0181 47° Northeast 452 520 33,000  Level New York Center
Tue 09:00:11 AM 39.9225 -74.8986 47° Northeast 452 520 33,000  Level New York Center
Tue 09:01:12 AM 40.0125 -74.7683 48° Northeast 463 533 33,000  Level New York Center
Tue 09:02:12 AM 40.1008 -74.6217 52° Northeast 471 542 33,000  Level New York Center
Tue 09:03:13 AM 40.1622 -74.4619 63° Northeast 471 542 33,000 -450 Level New York Center
Tue 09:04:12 AM 40.2214 -74.2994 64° Northeast 481 554 32,100 -1,154 Descending New York Center
Tue 09:06:15 AM 40.3392 -73.9864 64° Northeast 512 589 29,500 -1,326 Descending Boston Center
Tue 09:07:13 AM 40.3956 -73.8217 66° East 500 575 28,100 -1,261 Descending Boston Center
Tue 09:08:14 AM 40.4581 -73.6375 66° East 500 575 27,000 -496 Descending Boston Center
Tue 09:09:26 AM 40.5222 -73.4531 65° Northeast 482 555 27,000 -45 Level Boston Center
Tue 09:10:27 AM 40.5778 -73.3008 64° Northeast 469 540 26,900 -645 Descending Boston Center
Tue 09:11:27 AM 40.6331 -73.1403 66° East 464 534 25,700 -1,190 Descending Boston Center
Tue 09:12:28 AM 40.6903 -72.9739 66° East 475 547 24,500 -1,169 Descending Boston Center
Tue 09:13:25 AM 40.7431 -72.8317 64° Northeast 482 555 23,400 -1,179 Descending Boston Center
Tue 09:14:25 AM 40.7975 -72.6758 65° Northeast 477 549 22,200 -1,190 Descending Boston Center
Tue 09:15:26 AM 40.8500 -72.5225 66° East 471 542 21,000 -1,082 Descending Boston Center
Tue 09:16:27 AM 40.9019 -72.3686 66° East 458 527 20,000 -583 Descending Boston Center
Tue 09:17:09 AM 40.9456 -72.2450 65° Northeast 452 520 20,000  Level Boston Center
Tue 09:17:28 AM 40.9517 -72.2203 72° East 448 516 20,000  Level Boston Center
Tue 09:17:58 AM 40.9850 -72.1267 65° Northeast 439 505 20,000  Level Boston Center
Tue 09:18:25 AM 41.0014 -72.0717 68° East 437 503 20,000 -286 Level Boston Center
Tue 09:19:01 AM 41.0322 -71.9806 66° East 434 499 19,700 -1,100 Descending Boston Center
Tue 09:19:25 AM 41.0614 -71.9197 58° Northeast 425 489 18,900 -1,967 Descending Boston Center
Tue 09:20:02 AM 41.0964 -71.8533 55° Northeast 425 489 17,700 -1,475 Descending Boston Center
Tue 09:20:26 AM 41.1233 -71.8092 51° Northeast 419 482 17,400 -1,900 Descending Boston Center
Tue 09:21:02 AM 41.1667 -71.7397 50° Northeast 411 473 15,800 -2,656 Descending Boston Center
Tue 09:21:27 AM 41.2017 -71.6842 50° Northeast 406 467 14,700 -2,746 Descending Boston Center
Tue 09:22:01 AM 41.2408 -71.6175 52° Northeast 384 442 13,100 -2,483 Descending Boston Center
Tue 09:22:25 AM 41.2614 -71.5869 48° Northeast 383 441 12,300 -2,361 Descending Boston Center
Tue 09:23:02 AM 41.3086 -71.5144 49° Northeast 373 429 10,700 -1,672 Descending Boston Center
Tue 09:23:26 AM 41.3314 -71.4781 50° Northeast 365 420 10,600 -700 Descending Boston Center
Tue 09:24:02 AM 41.3622 -71.4250 52° Northeast 312 359 10,000 -1,180 Descending Boston Center
Tue 09:24:27 AM 41.3828 -71.4025 39° Northeast 319 367 9,400 -1,688 Descending Boston Center
Tue 09:25:06 AM 41.4347 -71.3908 10° North 285 328 8,200 -1,900 Descending Boston Center
Tue 09:25:27 AM 41.4661 -71.3875 North 267 307 7,500 -1,759 Descending Boston Center
Tue 09:26:04 AM 41.5117 -71.3811 North 276 318 6,500 -1,500 Descending Boston Center
Tue 09:26:27 AM 41.5325 -71.3753 12° North 267 307 6,000 -1,452 Descending Boston Center
Tue 09:27:06 AM 41.5847 -71.3772 358° North 264 304 5,000 -1,000 Descending Boston Center
Tue 09:27:27 AM 41.6117 -71.3572 29° Northeast 262 302 5,000  Level Boston Center
Tue 09:28:07 AM 41.6486 -71.3206 37° Northeast 279 321 5,000  Level Boston Center
Tue 09:28:25 AM 41.6694 -71.3033 32° Northeast 260 299 5,000 -207 Level Boston Center
Tue 09:29:05 AM 41.7189 -71.2581 34° Northeast 280 322 4,800 -689 Descending Boston Center
Tue 09:29:26 AM 41.7397 -71.2411 31° Northeast 276 318 4,300 -1,500 Descending Boston Center
Tue 09:30:05 AM 41.7811 -71.2153 25° Northeast 254 292 3,300 -1,400 Descending Boston Center
Tue 09:30:26 AM 41.7936 -71.2233 334° Northwest 222 255 2,900 -1,219 Descending Boston Center
Tue 09:31:09 AM 41.8233 -71.2644 314° West 207 238 2,000 -984 Descending Boston Center
Tue 09:31:27 AM 41.8275 -71.2839 286° West 178 205 1,900 -100 Descending Boston Center
Tue 09:32:09 AM 41.8261 -71.3342 268° West 189 217 1,900 -233 Level Boston Center
Tue 09:33:10 AM 41.7911 -71.3736 220° Southwest 164 189 1,500 -545 Descending Boston Center
Tue 09:34:10 AM 41.7619 -71.3936 207° Southwest 124 143 800 -645 Descending Boston Center
Tue 09:35:11 AM 41.7350 -71.4192 215° Southwest 121 139 200 -590 Descending Boston Center

Login

Don't have an account? Register now (free) for customized features, flight alerts, and more!